Plevna, Missouri
Current Conditions -  °F | °C
As of 5:55 PM on Friday 19 Dec 2014 (Local Time) from KIRK Reporting Station
Haze Haze  
Wind Chill: -3°   Ceiling: 800
Heat Index:   Visibility: 5mi
Dew Point: -1°   Wind: 6mph
Humidity: 92%   Direction: 120°ESE
Pressure: 30.23"   Gusts: NA
Location:  39.97°N, 92.09°W
Report Text: KIRK 192355Z AUTO 12005KT 5SM BR OVC008 00/M01 A3023 RMK AO2 SLP250 T00001011 10006 21006 56005
Loading
Personal Weather Stations






























Interactive Weather Map New forecast layout! Learn more

10-Day Weather Forecast

Advertisements
Track Severe Weather on mobile